Date,TemperatureHighF,TemperatureAvgF,TemperatureLowF,DewpointHighF,DewpointAvgF,DewpointLowF,HumidityHigh,HumidityAvg,HumidityLow,PressureMaxIn,PressureMinIn,WindSpeedMaxMPH,WindSpeedAvgMPH,GustSpeedMaxMPH,PrecipitationSumIn
2013-2-1,30.2,18.1,4.3,19.4,10.6,-0.6,84,73,61,30.41,30.08,14,4,14,0.01
2013-2-2,52.4,37.6,25.0,37.8,28.2,17.1,82,69,51,30.16,30.05,16,5,16,0.05
2013-2-3,52.9,40.9,27.7,29.9,26.6,19.5,84,59,36,30.24,29.78,16,6,16,0.00
2013-2-4,45.4,36.4,20.7,32.1,26.2,16.0,87,67,53,29.95,29.74,19,5,19,0.00
2013-2-5,60.7,37.7,19.8,35.1,25.8,15.7,89,66,34,30.05,29.85,14,3,14,0.00
2013-2-6,63.9,47.4,27.5,48.0,36.0,20.8,83,66,43,30.05,29.80,15,6,15,0.00
2013-2-7,53.1,45.1,32.0,46.1,38.9,26.6,94,79,59,30.18,29.81,17,6,17,0.46
2013-2-8,47.2,35.0,29.3,33.6,28.5,25.1,89,78,56,30.29,30.13,12,4,12,0.00
2013-2-9,54.4,39.9,29.9,41.2,33.6,26.8,90,79,58,30.14,29.66,18,7,18,0.00
2013-2-10,50.6,43.7,37.1,44.7,34.7,25.3,95,72,51,29.90,29.42,28,12,28,0.07
2013-2-11,48.4,36.0,26.8,27.8,23.5,18.3,76,62,37,30.13,29.90,17,6,17,0.00
2013-2-12,46.1,32.1,20.7,31.0,22.9,14.9,85,70,46,30.14,29.91,5,1,5,0.00
2013-2-13,57.8,38.2,22.7,30.7,24.4,17.5,85,61,30,29.92,29.77,20,4,20,0.00
2013-2-14,50.0,40.1,27.2,34.9,27.3,20.1,81,61,38,30.16,29.80,17,5,17,0.00
2013-2-15,40.3,30.2,19.1,27.7,18.4,10.8,89,63,38,30.35,30.16,21,6,21,0.00
2013-2-16,40.3,31.3,20.3,28.5,21.7,16.4,87,69,45,30.27,29.99,13,5,13,0.03
2013-2-17,62.3,42.9,23.8,36.6,27.9,16.0,78,57,37,29.99,29.59,19,6,19,0.01
2013-2-18,55.8,42.9,24.5,45.5,30.3,15.8,73,61,47,30.05,29.46,24,10,24,0.00
2013-2-19,40.5,27.7,20.2,18.3,10.4,1.6,79,51,22,30.29,30.05,20,5,20,0.00
2013-2-20,28.8,22.7,16.2,14.3,9.1,4.2,63,56,46,30.31,30.09,16,6,16,0.00
2013-2-21,27.4,24.3,20.5,25.4,20.3,14.0,92,85,63,30.12,29.70,20,6,20,0.00
2013-2-22,30.8,21.3,12.6,21.9,16.0,7.4,91,80,62,30.03,29.75,0,0,0,0.24
2013-2-23,42.1,19.2,2.2,27.1,12.8,-2.0,86,77,51,30.03,29.88,9,2,9,0.02
2013-2-24,44.6,30.7,13.3,30.5,22.5,9.6,88,73,53,29.96,29.83,12,4,12,0.00
2013-2-25,36.7,34.1,30.2,32.0,28.3,24.5,93,79,68,29.91,29.67,21,9,21,0.04
2013-2-26,34.7,32.6,31.0,31.1,30.1,28.6,94,91,84,29.84,29.62,22,9,22,0.11
2013-2-27,41.6,33.3,28.4,29.6,27.2,24.6,93,79,59,30.04,29.82,19,8,19,0.39
2013-2-28,34.2,31.9,29.7,27.3,25.7,23.7,83,78,72,30.17,30.03,16,6,16,0.01